AAL2308 KIND-KIND
Flight info
| Callsign | AAL2308 |
|---|---|
| Flight time | N/A |
| Altitude | 3800 |
| Route | DAWNN1 IIU J99 VXV CAE SAV SSI CRG DEBRL CSTAL3 |
| Aircraft | B738/M-VGDW/C |
Departure
| Time | 2026-05-07 10:09 |
|---|---|
| Airport | Indianapolis International Airport (KIND) |
Arrival
| Time | N/A |
|---|---|
| Airport | Indianapolis International Airport (KIND) |
| Time | Latitude | Longitude | Altitude | Speed | Heading |
|---|---|---|---|---|---|
| 2026-05-07 09:48 | 39.71719 | -86.29837 | 772 ft | 0 kts | 134° |
| 2026-05-07 09:59 | 39.71731 | -86.29855 | 772 ft | 2 kts | 134° |
| 2026-05-07 10:00 | 39.71738 | -86.29863 | 772 ft | 1 kts | 134° |
| 2026-05-07 10:00 | 39.71746 | -86.29879 | 771 ft | 2 kts | 107° |
| 2026-05-07 10:00 | 39.71749 | -86.29898 | 771 ft | 2 kts | 85° |
| 2026-05-07 10:00 | 39.71745 | -86.29917 | 771 ft | 2 kts | 62° |
| 2026-05-07 10:01 | 39.71739 | -86.29928 | 770 ft | 0 kts | 46° |
| 2026-05-07 10:01 | 39.71734 | -86.29934 | 770 ft | 0 kts | 44° |
| 2026-05-07 10:03 | 39.71783 | -86.29895 | 771 ft | 15 kts | 24° |
| 2026-05-07 10:03 | 39.71903 | -86.29826 | 772 ft | 18 kts | 25° |
| 2026-05-07 10:03 | 39.72006 | -86.29748 | 774 ft | 16 kts | 36° |
| 2026-05-07 10:04 | 39.72087 | -86.29663 | 776 ft | 13 kts | 39° |
| 2026-05-07 10:04 | 39.72142 | -86.29582 | 777 ft | 10 kts | 83° |
| 2026-05-07 10:04 | 39.72101 | -86.29494 | 779 ft | 16 kts | 133° |
| 2026-05-07 10:04 | 39.72004 | -86.29369 | 779 ft | 20 kts | 134° |
| 2026-05-07 10:05 | 39.71912 | -86.29247 | 781 ft | 17 kts | 135° |
| 2026-05-07 10:05 | 39.71831 | -86.29143 | 782 ft | 15 kts | 134° |
| 2026-05-07 10:05 | 39.71757 | -86.29042 | 783 ft | 14 kts | 134° |
| 2026-05-07 10:05 | 39.71689 | -86.28951 | 784 ft | 14 kts | 134° |
| 2026-05-07 10:06 | 39.71610 | -86.28848 | 786 ft | 16 kts | 135° |
| 2026-05-07 10:06 | 39.71608 | -86.28724 | 787 ft | 17 kts | 47° |
| 2026-05-07 10:06 | 39.71700 | -86.28608 | 787 ft | 18 kts | 44° |
| 2026-05-07 10:06 | 39.71786 | -86.28499 | 789 ft | 15 kts | 45° |
| 2026-05-07 10:07 | 39.71861 | -86.28402 | 789 ft | 14 kts | 45° |
| 2026-05-07 10:07 | 39.71939 | -86.28301 | 789 ft | 16 kts | 45° |
| 2026-05-07 10:07 | 39.72018 | -86.28200 | 790 ft | 15 kts | 44° |
| 2026-05-07 10:07 | 39.72069 | -86.28111 | 791 ft | 10 kts | 99° |
| 2026-05-07 10:08 | 39.72027 | -86.28036 | 790 ft | 10 kts | 133° |
| 2026-05-07 10:08 | 39.71965 | -86.27985 | 789 ft | 10 kts | 193° |
| 2026-05-07 10:08 | 39.71903 | -86.28046 | 789 ft | 18 kts | 223° |
| 2026-05-07 10:08 | 39.71623 | -86.28403 | 789 ft | 90 kts | 225° |
| 2026-05-07 10:09 | 39.71029 | -86.29159 | 792 ft | 149 kts | 225° |
| 2026-05-07 10:09 | 39.70198 | -86.30210 | 1041 ft | 176 kts | 225° |
| 2026-05-07 10:09 | 39.69314 | -86.31349 | 1676 ft | 185 kts | 228° |
| 2026-05-07 10:09 | 39.68406 | -86.32588 | 2323 ft | 194 kts | 232° |
| 2026-05-07 10:10 | 39.67430 | -86.33785 | 2991 ft | 203 kts | 215° |
| 2026-05-07 10:10 | 39.66019 | -86.34310 | 3580 ft | 220 kts | 181° |
| 2026-05-07 10:10 | 39.64470 | -86.34074 | 4229 ft | 231 kts | 172° |
| 2026-05-07 10:10 | 39.62857 | -86.33704 | 4764 ft | 247 kts | 172° |
| 2026-05-07 10:11 | 39.61084 | -86.33301 | 5263 ft | 266 kts | 172° |
| 2026-05-07 10:11 | 39.59233 | -86.32883 | 5877 ft | 278 kts | 172° |
| 2026-05-07 10:11 | 39.57302 | -86.32450 | 6546 ft | 287 kts | 172° |
| 2026-05-07 10:11 | 39.55315 | -86.32024 | 7392 ft | 294 kts | 175° |
| 2026-05-07 10:12 | 39.53314 | -86.31644 | 8462 ft | 292 kts | 175° |
| 2026-05-07 10:12 | 39.51336 | -86.31322 | 9454 ft | 290 kts | 179° |
| 2026-05-07 10:12 | 39.49337 | -86.31175 | 10334 ft | 291 kts | 184° |
| 2026-05-07 10:12 | 39.47285 | -86.31186 | 10926 ft | 302 kts | 187° |
| 2026-05-07 10:13 | 39.45137 | -86.31271 | 11531 ft | 312 kts | 187° |
| 2026-05-07 10:13 | 39.42932 | -86.31369 | 12090 ft | 324 kts | 187° |
| 2026-05-07 10:13 | 39.40644 | -86.31459 | 12563 ft | 338 kts | 187° |
| 2026-05-07 10:13 | 39.38254 | -86.31543 | 13094 ft | 349 kts | 187° |
| 2026-05-07 10:14 | 39.35791 | -86.31592 | 13814 ft | 355 kts | 186° |
| 2026-05-07 10:14 | 39.33322 | -86.31464 | 14622 ft | 358 kts | 184° |
| 2026-05-07 10:14 | 39.30866 | -86.31202 | 15431 ft | 358 kts | 182° |
| 2026-05-07 10:14 | 39.28388 | -86.30880 | 16117 ft | 361 kts | 182° |
| 2026-05-07 10:15 | 39.25887 | -86.30556 | 16721 ft | 365 kts | 183° |
| 2026-05-07 10:15 | 39.23359 | -86.30244 | 17321 ft | 368 kts | 184° |
| 2026-05-07 10:15 | 39.20798 | -86.29936 | 18039 ft | 366 kts | 185° |
| 2026-05-07 10:15 | 39.18275 | -86.29645 | 18623 ft | 368 kts | 186° |
| 2026-05-07 10:16 | 39.15709 | -86.29356 | 19280 ft | 368 kts | 186° |
| 2026-05-07 10:16 | 39.13173 | -86.29076 | 19875 ft | 369 kts | 186° |
| 2026-05-07 10:16 | 39.10616 | -86.28797 | 20425 ft | 370 kts | 186° |
| 2026-05-07 10:16 | 39.08059 | -86.28514 | 21016 ft | 371 kts | 186° |
| 2026-05-07 10:17 | 39.05461 | -86.28230 | 21430 ft | 376 kts | 187° |
| 2026-05-07 10:17 | 39.02862 | -86.27946 | 22018 ft | 375 kts | 187° |
| 2026-05-07 10:17 | 39.00283 | -86.27657 | 22623 ft | 374 kts | 187° |
| 2026-05-07 10:17 | 38.97687 | -86.27368 | 23091 ft | 376 kts | 187° |
| 2026-05-07 10:18 | 38.95064 | -86.27084 | 23393 ft | 382 kts | 187° |
| 2026-05-07 10:18 | 38.92426 | -86.26800 | 23819 ft | 384 kts | 187° |
| 2026-05-07 10:18 | 38.89748 | -86.26505 | 24326 ft | 383 kts | 187° |
| 2026-05-07 10:18 | 38.87120 | -86.26210 | 24758 ft | 384 kts | 188° |
| 2026-05-07 10:19 | 38.84451 | -86.25914 | 25150 ft | 387 kts | 189° |
| 2026-05-07 10:19 | 38.81780 | -86.25620 | 25611 ft | 386 kts | 189° |
| 2026-05-07 10:19 | 38.79091 | -86.25320 | 26083 ft | 385 kts | 189° |
| 2026-05-07 10:19 | 38.76446 | -86.25023 | 26592 ft | 383 kts | 190° |
| 2026-05-07 10:20 | 38.73793 | -86.24721 | 27190 ft | 378 kts | 191° |
| 2026-05-07 10:20 | 38.71208 | -86.24427 | 27727 ft | 374 kts | 192° |
| 2026-05-07 10:20 | 38.68612 | -86.24137 | 28158 ft | 373 kts | 192° |
| 2026-05-07 10:20 | 38.66019 | -86.23859 | 28523 ft | 373 kts | 192° |
| 2026-05-07 10:21 | 38.63467 | -86.23547 | 28942 ft | 374 kts | 192° |
| 2026-05-07 10:21 | 38.60863 | -86.22999 | 29224 ft | 391 kts | 185° |
| 2026-05-07 10:21 | 38.58174 | -86.21884 | 29410 ft | 418 kts | 175° |
| 2026-05-07 10:21 | 38.55502 | -86.20130 | 29525 ft | 446 kts | 165° |
| 2026-05-07 10:22 | 38.52943 | -86.17764 | 29637 ft | 472 kts | 157° |
| 2026-05-07 10:22 | 38.50466 | -86.14850 | 29721 ft | 492 kts | 150° |
| 2026-05-07 10:22 | 38.48091 | -86.11641 | 29818 ft | 506 kts | 147° |
| 2026-05-07 10:22 | 38.45761 | -86.08252 | 30037 ft | 512 kts | 146° |
| 2026-05-07 10:23 | 38.43441 | -86.04771 | 30244 ft | 517 kts | 145° |
| 2026-05-07 10:23 | 38.41141 | -86.01308 | 30561 ft | 516 kts | 145° |
| 2026-05-07 10:23 | 38.38810 | -85.97821 | 30939 ft | 514 kts | 146° |
| 2026-05-07 10:23 | 38.36486 | -85.94408 | 31153 ft | 516 kts | 147° |
| 2026-05-07 10:24 | 38.34115 | -85.90981 | 31557 ft | 512 kts | 147° |
| 2026-05-07 10:24 | 38.31769 | -85.87630 | 31949 ft | 509 kts | 148° |
| 2026-05-07 10:24 | 38.29395 | -85.84282 | 32136 ft | 512 kts | 148° |
| 2026-05-07 10:24 | 38.27002 | -85.80936 | 32410 ft | 512 kts | 148° |
| 2026-05-07 10:25 | 38.24610 | -85.77600 | 32789 ft | 510 kts | 149° |
| 2026-05-07 10:25 | 38.22205 | -85.74255 | 32976 ft | 512 kts | 149° |
| 2026-05-07 10:25 | 38.19821 | -85.70950 | 33222 ft | 513 kts | 149° |
| 2026-05-07 10:25 | 38.17402 | -85.67591 | 33540 ft | 513 kts | 149° |
| 2026-05-07 10:26 | 38.14985 | -85.64251 | 33874 ft | 511 kts | 149° |
| 2026-05-07 10:26 | 38.12572 | -85.61031 | 34082 ft | 508 kts | 152° |
| 2026-05-07 10:26 | 38.10000 | -85.58015 | 34350 ft | 493 kts | 158° |
| 2026-05-07 10:26 | 38.07339 | -85.55364 | 34730 ft | 480 kts | 162° |
| 2026-05-07 10:27 | 38.04652 | -85.52998 | 35065 ft | 470 kts | 165° |
| 2026-05-07 10:27 | 38.01920 | -85.50768 | 35529 ft | 462 kts | 167° |
| 2026-05-07 10:27 | 37.99204 | -85.48638 | 35772 ft | 460 kts | 168° |
| 2026-05-07 10:27 | 37.96485 | -85.46555 | 35877 ft | 462 kts | 168° |
| 2026-05-07 10:28 | 37.93700 | -85.44434 | 36046 ft | 464 kts | 168° |
| 2026-05-07 10:28 | 37.90951 | -85.42336 | 36216 ft | 466 kts | 167° |
| 2026-05-07 10:28 | 37.88159 | -85.40189 | 36472 ft | 467 kts | 167° |
| 2026-05-07 10:28 | 37.85429 | -85.38069 | 36809 ft | 465 kts | 167° |
| 2026-05-07 10:29 | 37.82656 | -85.35908 | 37065 ft | 464 kts | 167° |
| 2026-05-07 10:29 | 37.79919 | -85.33769 | 37278 ft | 464 kts | 167° |
| 2026-05-07 10:29 | 37.77207 | -85.31651 | 37428 ft | 464 kts | 167° |
| 2026-05-07 10:30 | 37.71688 | -85.27344 | 37679 ft | 466 kts | 167° |
| 2026-05-07 10:30 | 37.68922 | -85.25182 | 37828 ft | 466 kts | 167° |
| 2026-05-07 10:30 | 37.63400 | -85.20875 | 37978 ft | 469 kts | 167° |
| 2026-05-07 10:31 | 37.57854 | -85.16550 | 38040 ft | 469 kts | 167° |
| 2026-05-07 10:31 | 37.52349 | -85.12252 | 38039 ft | 467 kts | 167° |
| 2026-05-07 10:32 | 37.46830 | -85.07961 | 38030 ft | 468 kts | 167° |
| 2026-05-07 10:32 | 37.41251 | -85.03642 | 38034 ft | 467 kts | 166° |
| 2026-05-07 10:33 | 37.35763 | -84.99373 | 38028 ft | 462 kts | 166° |
| 2026-05-07 10:33 | 37.30289 | -84.95143 | 38022 ft | 462 kts | 166° |
| 2026-05-07 10:34 | 37.24795 | -84.90923 | 38028 ft | 467 kts | 166° |
| 2026-05-07 10:34 | 37.19248 | -84.86656 | 38018 ft | 465 kts | 166° |
| 2026-05-07 10:35 | 37.13792 | -84.82447 | 38018 ft | 461 kts | 166° |
| 2026-05-07 10:35 | 37.08306 | -84.78234 | 38021 ft | 465 kts | 166° |
| 2026-05-07 10:36 | 37.02791 | -84.74022 | 38019 ft | 466 kts | 166° |
| 2026-05-07 10:36 | 36.97259 | -84.69796 | 38016 ft | 464 kts | 166° |
| 2026-05-07 10:37 | 36.91774 | -84.65587 | 38014 ft | 461 kts | 166° |
| 2026-05-07 10:37 | 36.86289 | -84.61420 | 38015 ft | 467 kts | 166° |
| 2026-05-07 10:38 | 36.80743 | -84.57209 | 38002 ft | 465 kts | 165° |
| 2026-05-07 10:38 | 36.75261 | -84.53020 | 38002 ft | 461 kts | 166° |
| 2026-05-07 10:39 | 36.69787 | -84.48869 | 38001 ft | 463 kts | 166° |
| 2026-05-07 10:39 | 36.64220 | -84.44682 | 37999 ft | 471 kts | 165° |
| 2026-05-07 10:40 | 36.58601 | -84.40450 | 37997 ft | 476 kts | 165° |
| 2026-05-07 10:40 | 36.52925 | -84.36168 | 37986 ft | 476 kts | 165° |
| 2026-05-07 10:41 | 36.47317 | -84.31915 | 37988 ft | 468 kts | 165° |
| 2026-05-07 10:41 | 36.41772 | -84.27722 | 38097 ft | 467 kts | 166° |
| 2026-05-07 10:42 | 36.36209 | -84.23560 | 38214 ft | 472 kts | 165° |
| 2026-05-07 10:42 | 36.33389 | -84.21456 | 38321 ft | 472 kts | 165° |
| 2026-05-07 10:42 | 36.30573 | -84.19350 | 38446 ft | 473 kts | 165° |
| 2026-05-07 10:43 | 36.27769 | -84.17255 | 38570 ft | 474 kts | 165° |
| 2026-05-07 10:43 | 36.24925 | -84.15130 | 38692 ft | 474 kts | 165° |
| 2026-05-07 10:43 | 36.22110 | -84.13026 | 38816 ft | 475 kts | 165° |
| 2026-05-07 10:43 | 36.19280 | -84.10912 | 38953 ft | 474 kts | 165° |
| 2026-05-07 10:44 | 36.13674 | -84.06724 | 38980 ft | 472 kts | 165° |
| 2026-05-07 10:44 | 36.08082 | -84.02548 | 38971 ft | 469 kts | 165° |
| 2026-05-07 10:45 | 36.02504 | -83.98405 | 38979 ft | 469 kts | 165° |
| 2026-05-07 10:45 | 35.96857 | -83.94235 | 38986 ft | 475 kts | 165° |
| 2026-05-07 10:46 | 35.91335 | -83.89745 | 38973 ft | 483 kts | 156° |
| 2026-05-07 10:46 | 35.88782 | -83.86993 | 38980 ft | 499 kts | 150° |
| 2026-05-07 10:46 | 35.86329 | -83.83929 | 38969 ft | 509 kts | 146° |
| 2026-05-07 10:47 | 35.81656 | -83.77353 | 38974 ft | 515 kts | 142° |
| 2026-05-07 10:47 | 35.77132 | -83.70583 | 38964 ft | 510 kts | 142° |
| 2026-05-07 10:48 | 35.72601 | -83.63854 | 38968 ft | 512 kts | 142° |
| 2026-05-07 10:48 | 35.68028 | -83.57202 | 38952 ft | 509 kts | 143° |
| 2026-05-07 10:49 | 35.63430 | -83.50591 | 38956 ft | 510 kts | 143° |
| 2026-05-07 10:49 | 35.58853 | -83.44050 | 38952 ft | 506 kts | 143° |
| 2026-05-07 10:50 | 35.54252 | -83.37493 | 38957 ft | 507 kts | 143° |
| 2026-05-07 10:50 | 35.49671 | -83.30981 | 38962 ft | 505 kts | 143° |
| 2026-05-07 10:51 | 35.45119 | -83.24516 | 38967 ft | 504 kts | 143° |
| 2026-05-07 10:51 | 35.40490 | -83.17973 | 38969 ft | 509 kts | 143° |
| 2026-05-07 10:52 | 35.35881 | -83.11449 | 38961 ft | 505 kts | 143° |
| 2026-05-07 10:52 | 35.31313 | -83.04980 | 38962 ft | 503 kts | 143° |
| 2026-05-07 10:53 | 35.26717 | -82.98508 | 38974 ft | 506 kts | 143° |
| 2026-05-07 10:53 | 35.22117 | -82.92036 | 38954 ft | 506 kts | 143° |
| 2026-05-07 10:54 | 35.17500 | -82.85561 | 38948 ft | 508 kts | 143° |
| 2026-05-07 10:54 | 35.12897 | -82.79093 | 38935 ft | 500 kts | 143° |
| 2026-05-07 10:55 | 35.08337 | -82.72710 | 38922 ft | 502 kts | 143° |
| 2026-05-07 10:55 | 35.03727 | -82.66293 | 38915 ft | 503 kts | 143° |
| 2026-05-07 10:56 | 34.99162 | -82.59928 | 38920 ft | 504 kts | 143° |
| 2026-05-07 10:56 | 34.94564 | -82.53526 | 38917 ft | 500 kts | 143° |
| 2026-05-07 10:57 | 34.89977 | -82.47154 | 38920 ft | 503 kts | 143° |
| 2026-05-07 10:57 | 34.85352 | -82.40749 | 38916 ft | 505 kts | 142° |
| 2026-05-07 10:58 | 34.80731 | -82.34360 | 38913 ft | 506 kts | 142° |
| 2026-05-07 10:58 | 34.76108 | -82.27962 | 38910 ft | 501 kts | 143° |
| 2026-05-07 10:59 | 34.71511 | -82.21610 | 38910 ft | 501 kts | 142° |
| 2026-05-07 10:59 | 34.66875 | -82.15243 | 38908 ft | 504 kts | 142° |
| 2026-05-07 11:00 | 34.62238 | -82.08882 | 38910 ft | 504 kts | 143° |
| 2026-05-07 11:00 | 34.57630 | -82.02557 | 38913 ft | 500 kts | 143° |
| 2026-05-07 11:01 | 34.53011 | -81.96236 | 38911 ft | 502 kts | 142° |
| 2026-05-07 11:01 | 34.48388 | -81.89924 | 38910 ft | 503 kts | 142° |
| 2026-05-07 11:02 | 34.43746 | -81.83597 | 38915 ft | 502 kts | 142° |
| 2026-05-07 11:02 | 34.39099 | -81.77280 | 38916 ft | 503 kts | 141° |
| 2026-05-07 11:03 | 34.34470 | -81.70985 | 38923 ft | 504 kts | 141° |
| 2026-05-07 11:03 | 34.29807 | -81.64656 | 38916 ft | 502 kts | 142° |
| 2026-05-07 11:04 | 34.25161 | -81.58370 | 38920 ft | 506 kts | 141° |
| 2026-05-07 11:04 | 34.20484 | -81.52052 | 38912 ft | 504 kts | 141° |
| 2026-05-07 11:05 | 34.15831 | -81.45777 | 38906 ft | 506 kts | 140° |
| 2026-05-07 11:05 | 34.10726 | -81.40274 | 38907 ft | 469 kts | 166° |
| 2026-05-07 11:06 | 34.07745 | -81.39033 | 38922 ft | 449 kts | 178° |
| 2026-05-07 11:06 | 34.04695 | -81.38215 | 38904 ft | 445 kts | 180° |
| 2026-05-07 11:06 | 33.98605 | -81.36867 | 38907 ft | 445 kts | 182° |
| 2026-05-07 11:07 | 33.92522 | -81.35603 | 38908 ft | 442 kts | 182° |
| 2026-05-07 11:07 | 33.86446 | -81.34375 | 38912 ft | 444 kts | 182° |
| 2026-05-07 11:08 | 33.80390 | -81.33173 | 38918 ft | 441 kts | 182° |
| 2026-05-07 11:08 | 33.74340 | -81.31988 | 38919 ft | 443 kts | 182° |
| 2026-05-07 11:09 | 33.68216 | -81.30819 | 38916 ft | 441 kts | 182° |
| 2026-05-07 11:09 | 33.62159 | -81.29684 | 38926 ft | 445 kts | 182° |
| 2026-05-07 11:10 | 33.56060 | -81.28564 | 38927 ft | 441 kts | 182° |
| 2026-05-07 11:10 | 33.49940 | -81.27460 | 38931 ft | 445 kts | 182° |
| 2026-05-07 11:11 | 33.43853 | -81.26380 | 38934 ft | 446 kts | 182° |
| 2026-05-07 11:11 | 33.37741 | -81.25306 | 38936 ft | 441 kts | 182° |
| 2026-05-07 11:12 | 33.31610 | -81.24252 | 38942 ft | 446 kts | 182° |
| 2026-05-07 11:12 | 33.25483 | -81.23219 | 38940 ft | 445 kts | 182° |
| 2026-05-07 11:13 | 33.19370 | -81.22189 | 38943 ft | 444 kts | 182° |
| 2026-05-07 11:13 | 33.13301 | -81.21168 | 38946 ft | 443 kts | 182° |
| 2026-05-07 11:14 | 33.07170 | -81.20158 | 38945 ft | 445 kts | 182° |
| 2026-05-07 11:14 | 33.01074 | -81.19196 | 38947 ft | 442 kts | 182° |
| 2026-05-07 11:15 | 32.94975 | -81.18241 | 38948 ft | 444 kts | 182° |
| 2026-05-07 11:15 | 32.88803 | -81.17290 | 38951 ft | 450 kts | 182° |
| 2026-05-07 11:16 | 32.82610 | -81.16338 | 38948 ft | 446 kts | 182° |
| 2026-05-07 11:16 | 32.76460 | -81.15391 | 38951 ft | 447 kts | 182° |
| 2026-05-07 11:17 | 32.70279 | -81.14446 | 38952 ft | 450 kts | 182° |
| 2026-05-07 11:17 | 32.64089 | -81.13499 | 38954 ft | 447 kts | 182° |
| 2026-05-07 11:18 | 32.57913 | -81.12547 | 38955 ft | 450 kts | 182° |
| 2026-05-07 11:18 | 32.51701 | -81.11608 | 38957 ft | 449 kts | 182° |
| 2026-05-07 11:19 | 32.45511 | -81.10671 | 38966 ft | 452 kts | 182° |
| 2026-05-07 11:19 | 32.39245 | -81.09729 | 38971 ft | 455 kts | 182° |
| 2026-05-07 11:20 | 32.33001 | -81.08793 | 38985 ft | 454 kts | 182° |
| 2026-05-07 11:20 | 32.26717 | -81.07857 | 38979 ft | 455 kts | 182° |
| 2026-05-07 11:21 | 32.20471 | -81.06930 | 38992 ft | 456 kts | 182° |
| 2026-05-07 11:21 | 32.14125 | -81.06007 | 39000 ft | 457 kts | 182° |
| 2026-05-07 11:22 | 32.07846 | -81.05098 | 39001 ft | 459 kts | 182° |
| 2026-05-07 11:22 | 32.01471 | -81.04184 | 38995 ft | 460 kts | 182° |
| 2026-05-07 11:23 | 31.95144 | -81.03284 | 38998 ft | 459 kts | 182° |
| 2026-05-07 11:23 | 31.88761 | -81.02377 | 38994 ft | 461 kts | 182° |
| 2026-05-07 11:24 | 31.82428 | -81.01469 | 38988 ft | 460 kts | 182° |
| 2026-05-07 11:24 | 31.76052 | -81.00562 | 38982 ft | 463 kts | 182° |
| 2026-05-07 11:25 | 31.69675 | -80.99665 | 38988 ft | 463 kts | 182° |
| 2026-05-07 11:25 | 31.63270 | -80.98772 | 38989 ft | 464 kts | 182° |
| 2026-05-07 11:26 | 31.56887 | -80.97906 | 38983 ft | 460 kts | 182° |
| 2026-05-07 11:26 | 31.50518 | -80.97052 | 38987 ft | 463 kts | 182° |
| 2026-05-07 11:27 | 31.44134 | -80.96204 | 38989 ft | 461 kts | 182° |
| 2026-05-07 11:27 | 31.37711 | -80.95366 | 38987 ft | 464 kts | 182° |
| 2026-05-07 11:28 | 31.31319 | -80.94550 | 38986 ft | 464 kts | 182° |
| 2026-05-07 11:28 | 31.24856 | -80.93739 | 38990 ft | 466 kts | 182° |
| 2026-05-07 11:29 | 31.18444 | -80.92947 | 38981 ft | 464 kts | 182° |
| 2026-05-07 11:29 | 31.12025 | -80.92168 | 38988 ft | 465 kts | 182° |
| 2026-05-07 11:30 | 31.05582 | -80.91410 | 38987 ft | 465 kts | 182° |
| 2026-05-07 11:30 | 30.99141 | -80.90665 | 38987 ft | 463 kts | 182° |
| 2026-05-07 11:31 | 30.92712 | -80.90270 | 38988 ft | 459 kts | 188° |
| 2026-05-07 11:31 | 30.86356 | -80.90474 | 38992 ft | 459 kts | 191° |
| 2026-05-07 11:32 | 30.76770 | -80.90844 | 38988 ft | 459 kts | 190° |
| 2026-05-07 11:33 | 30.70376 | -80.91005 | 38992 ft | 459 kts | 189° |
| 2026-05-07 11:33 | 30.64009 | -80.91116 | 38999 ft | 460 kts | 189° |
| 2026-05-07 11:34 | 30.57623 | -80.91210 | 38993 ft | 461 kts | 189° |
| 2026-05-07 11:34 | 30.51170 | -80.91296 | 39001 ft | 462 kts | 189° |
| 2026-05-07 11:35 | 30.44786 | -80.91376 | 38984 ft | 461 kts | 189° |
| 2026-05-07 11:35 | 30.38362 | -80.91457 | 38994 ft | 462 kts | 189° |
| 2026-05-07 11:36 | 30.31883 | -80.91537 | 38989 ft | 462 kts | 188° |
| 2026-05-07 11:36 | 30.25496 | -80.91615 | 38984 ft | 461 kts | 189° |
| 2026-05-07 11:37 | 30.19065 | -80.91698 | 38990 ft | 463 kts | 188° |
| 2026-05-07 11:37 | 30.12609 | -80.91779 | 38983 ft | 463 kts | 189° |
| 2026-05-07 11:38 | 30.06156 | -80.91859 | 38991 ft | 465 kts | 189° |
| 2026-05-07 11:38 | 29.99671 | -80.91939 | 38990 ft | 464 kts | 189° |
| 2026-05-07 11:39 | 29.93229 | -80.92017 | 38993 ft | 464 kts | 188° |
| 2026-05-07 11:39 | 29.86773 | -80.92099 | 38995 ft | 464 kts | 188° |
| 2026-05-07 11:40 | 29.80289 | -80.92179 | 39003 ft | 464 kts | 188° |
| 2026-05-07 11:40 | 29.73850 | -80.92257 | 39005 ft | 463 kts | 188° |
| 2026-05-07 11:41 | 29.67390 | -80.92336 | 39005 ft | 464 kts | 188° |
| 2026-05-07 11:41 | 29.60945 | -80.92417 | 39007 ft | 463 kts | 188° |
| 2026-05-07 11:42 | 29.54499 | -80.92495 | 39023 ft | 463 kts | 188° |
| 2026-05-07 11:42 | 29.48046 | -80.92576 | 39018 ft | 464 kts | 188° |
| 2026-05-07 11:43 | 29.41577 | -80.92654 | 39027 ft | 463 kts | 188° |
| 2026-05-07 11:43 | 29.35153 | -80.92732 | 39035 ft | 463 kts | 188° |
| 2026-05-07 11:44 | 29.28674 | -80.92812 | 39031 ft | 463 kts | 188° |
| 2026-05-07 11:44 | 29.22229 | -80.92889 | 39033 ft | 462 kts | 188° |
| 2026-05-07 11:45 | 29.15836 | -80.92967 | 39040 ft | 462 kts | 188° |
| 2026-05-07 11:45 | 29.09393 | -80.93048 | 39041 ft | 463 kts | 187° |
| 2026-05-07 11:46 | 29.02933 | -80.93128 | 39041 ft | 463 kts | 187° |
| 2026-05-07 11:46 | 28.96494 | -80.93205 | 39043 ft | 462 kts | 187° |
| 2026-05-07 11:47 | 28.90051 | -80.93284 | 39045 ft | 462 kts | 187° |
| 2026-05-07 11:47 | 28.83638 | -80.93361 | 39045 ft | 460 kts | 187° |
| 2026-05-07 11:48 | 28.77201 | -80.93117 | 39040 ft | 469 kts | 178° |
| 2026-05-07 11:48 | 28.70821 | -80.91148 | 39047 ft | 481 kts | 165° |
| 2026-05-07 11:49 | 28.64617 | -80.88258 | 39045 ft | 483 kts | 161° |
| 2026-05-07 11:49 | 28.58498 | -80.85197 | 39048 ft | 483 kts | 161° |
| 2026-05-07 11:50 | 28.52321 | -80.82137 | 39050 ft | 481 kts | 161° |
| 2026-05-07 11:50 | 28.46173 | -80.79160 | 39048 ft | 481 kts | 162° |
| 2026-05-07 11:51 | 28.39981 | -80.76205 | 39050 ft | 481 kts | 162° |
| 2026-05-07 11:51 | 28.33832 | -80.73288 | 39049 ft | 481 kts | 162° |
| 2026-05-07 11:52 | 28.27665 | -80.70370 | 39051 ft | 481 kts | 162° |
| 2026-05-07 11:52 | 28.21479 | -80.67490 | 39050 ft | 479 kts | 164° |
| 2026-05-07 11:53 | 28.15146 | -80.65198 | 39055 ft | 475 kts | 169° |
| 2026-05-07 11:53 | 28.08762 | -80.63325 | 39055 ft | 474 kts | 171° |
| 2026-05-07 11:54 | 28.02332 | -80.61502 | 39056 ft | 474 kts | 171° |
| 2026-05-07 11:54 | 27.95946 | -80.59663 | 39056 ft | 474 kts | 170° |
| 2026-05-07 11:55 | 27.89588 | -80.57800 | 39059 ft | 474 kts | 170° |
| 2026-05-07 11:55 | 27.83171 | -80.55899 | 39059 ft | 474 kts | 170° |
| 2026-05-07 11:56 | 27.76821 | -80.54009 | 39059 ft | 474 kts | 170° |
| 2026-05-07 11:56 | 27.70423 | -80.52103 | 39062 ft | 474 kts | 169° |
| 2026-05-07 11:57 | 27.64042 | -80.50174 | 38757 ft | 476 kts | 168° |
| 2026-05-07 11:57 | 27.60889 | -80.49053 | 38536 ft | 476 kts | 165° |
| 2026-05-07 11:57 | 27.57755 | -80.47822 | 38315 ft | 475 kts | 164° |
| 2026-05-07 11:57 | 27.54641 | -80.46544 | 38096 ft | 476 kts | 163° |
| 2026-05-07 11:58 | 27.51557 | -80.45263 | 37878 ft | 476 kts | 163° |
| 2026-05-07 11:58 | 27.48426 | -80.43967 | 37656 ft | 477 kts | 163° |
| 2026-05-07 11:58 | 27.45333 | -80.42698 | 37438 ft | 477 kts | 163° |
| 2026-05-07 11:58 | 27.42185 | -80.41421 | 37217 ft | 477 kts | 164° |
| 2026-05-07 11:59 | 27.39074 | -80.40170 | 36997 ft | 476 kts | 164° |
| 2026-05-07 11:59 | 27.35938 | -80.38918 | 36776 ft | 476 kts | 164° |
| 2026-05-07 11:59 | 27.32824 | -80.37681 | 36556 ft | 475 kts | 164° |
| 2026-05-07 11:59 | 27.29723 | -80.36453 | 36339 ft | 476 kts | 164° |
| 2026-05-07 12:00 | 27.26583 | -80.35214 | 36118 ft | 477 kts | 164° |
| 2026-05-07 12:00 | 27.23434 | -80.33973 | 35898 ft | 477 kts | 165° |
| 2026-05-07 12:00 | 27.20320 | -80.32748 | 35679 ft | 478 kts | 165° |
| 2026-05-07 12:00 | 27.17190 | -80.31522 | 35460 ft | 478 kts | 165° |
| 2026-05-07 12:01 | 27.14031 | -80.30293 | 35239 ft | 478 kts | 165° |
| 2026-05-07 12:01 | 27.10871 | -80.29067 | 35023 ft | 478 kts | 165° |
| 2026-05-07 12:01 | 27.07752 | -80.27859 | 34808 ft | 480 kts | 165° |
| 2026-05-07 12:01 | 27.04564 | -80.26626 | 34583 ft | 480 kts | 165° |
| 2026-05-07 12:02 | 27.01410 | -80.25405 | 34364 ft | 479 kts | 165° |
| 2026-05-07 12:02 | 26.98279 | -80.24194 | 34150 ft | 480 kts | 165° |
| 2026-05-07 12:02 | 26.95093 | -80.22962 | 33754 ft | 483 kts | 164° |
| 2026-05-07 12:02 | 26.91945 | -80.21746 | 33088 ft | 484 kts | 164° |
| 2026-05-07 12:03 | 26.88729 | -80.20502 | 32300 ft | 480 kts | 165° |
| 2026-05-07 12:03 | 26.85598 | -80.19289 | 31573 ft | 476 kts | 165° |
| 2026-05-07 12:03 | 26.82438 | -80.18088 | 30834 ft | 483 kts | 165° |
| 2026-05-07 12:03 | 26.79256 | -80.16901 | 30101 ft | 487 kts | 165° |
| 2026-05-07 12:04 | 26.76010 | -80.15703 | 29355 ft | 489 kts | 166° |
| 2026-05-07 12:04 | 26.72779 | -80.14514 | 28623 ft | 490 kts | 166° |
| 2026-05-07 12:04 | 26.69559 | -80.13354 | 27906 ft | 490 kts | 167° |
| 2026-05-07 12:04 | 26.66251 | -80.12318 | 27180 ft | 491 kts | 169° |
| 2026-05-07 12:05 | 26.62936 | -80.11403 | 26460 ft | 492 kts | 171° |
| 2026-05-07 12:05 | 26.59596 | -80.10539 | 25737 ft | 491 kts | 171° |
| 2026-05-07 12:05 | 26.56313 | -80.09730 | 25009 ft | 475 kts | 172° |
| 2026-05-07 12:05 | 26.53128 | -80.08969 | 24283 ft | 461 kts | 172° |
| 2026-05-07 12:06 | 26.50082 | -80.08250 | 23581 ft | 448 kts | 172° |
| 2026-05-07 12:06 | 26.47078 | -80.07539 | 22879 ft | 436 kts | 172° |
| 2026-05-07 12:06 | 26.44138 | -80.06857 | 22190 ft | 428 kts | 172° |
| 2026-05-07 12:06 | 26.41232 | -80.06236 | 21508 ft | 424 kts | 173° |
| 2026-05-07 12:07 | 26.38346 | -80.05637 | 20827 ft | 422 kts | 172° |
| 2026-05-07 12:07 | 26.35464 | -80.04957 | 20134 ft | 418 kts | 169° |
| 2026-05-07 12:07 | 26.32650 | -80.04223 | 19447 ft | 413 kts | 168° |
| 2026-05-07 12:07 | 26.29868 | -80.03464 | 18790 ft | 411 kts | 168° |
| 2026-05-07 12:08 | 26.27086 | -80.02763 | 18098 ft | 411 kts | 171° |
| 2026-05-07 12:08 | 26.24268 | -80.02454 | 17402 ft | 409 kts | 183° |
| 2026-05-07 12:08 | 26.21436 | -80.02769 | 16715 ft | 407 kts | 191° |
| 2026-05-07 12:08 | 26.18673 | -80.03359 | 16029 ft | 407 kts | 193° |
| 2026-05-07 12:09 | 26.15895 | -80.04063 | 15330 ft | 406 kts | 194° |
| 2026-05-07 12:09 | 26.13144 | -80.04784 | 14637 ft | 405 kts | 193° |
| 2026-05-07 12:09 | 26.10441 | -80.05479 | 13956 ft | 404 kts | 193° |
| 2026-05-07 12:09 | 26.07697 | -80.06163 | 13223 ft | 395 kts | 192° |
| 2026-05-07 12:10 | 26.05084 | -80.06809 | 12555 ft | 381 kts | 192° |
| 2026-05-07 12:10 | 26.02557 | -80.07465 | 11872 ft | 368 kts | 193° |
| 2026-05-07 12:10 | 26.00098 | -80.08122 | 11179 ft | 358 kts | 192° |
| 2026-05-07 12:10 | 25.97710 | -80.08760 | 10491 ft | 349 kts | 192° |
| 2026-05-07 12:11 | 25.95384 | -80.09380 | 10004 ft | 337 kts | 192° |
| 2026-05-07 12:11 | 25.93123 | -80.10108 | 9947 ft | 338 kts | 200° |
| 2026-05-07 12:11 | 25.91084 | -80.11362 | 9976 ft | 339 kts | 218° |
| 2026-05-07 12:11 | 25.89426 | -80.13137 | 9960 ft | 321 kts | 228° |
| 2026-05-07 12:12 | 25.88207 | -80.15160 | 9752 ft | 310 kts | 248° |
| 2026-05-07 12:12 | 25.87748 | -80.17434 | 9219 ft | 304 kts | 269° |
| 2026-05-07 12:12 | 25.87744 | -80.19758 | 8595 ft | 302 kts | 271° |
| 2026-05-07 12:12 | 25.87741 | -80.22074 | 7957 ft | 301 kts | 270° |
| 2026-05-07 12:13 | 25.87696 | -80.24372 | 7355 ft | 297 kts | 269° |
| 2026-05-07 12:13 | 25.87628 | -80.26653 | 6750 ft | 293 kts | 269° |
| 2026-05-07 12:13 | 25.87554 | -80.28867 | 6155 ft | 290 kts | 268° |
| 2026-05-07 12:13 | 25.87479 | -80.31091 | 5545 ft | 286 kts | 268° |
| 2026-05-07 12:14 | 25.87407 | -80.33269 | 4942 ft | 283 kts | 268° |
| 2026-05-07 12:14 | 25.87335 | -80.35441 | 4337 ft | 280 kts | 268° |
| 2026-05-07 12:14 | 25.87265 | -80.37575 | 3735 ft | 278 kts | 268° |
| 2026-05-07 12:14 | 25.87191 | -80.39715 | 3166 ft | 273 kts | 265° |
| 2026-05-07 12:15 | 25.86736 | -80.41673 | 2960 ft | 253 kts | 239° |
| 2026-05-07 12:15 | 25.85631 | -80.43034 | 2896 ft | 230 kts | 213° |
| 2026-05-07 12:15 | 25.84215 | -80.43697 | 2740 ft | 216 kts | 188° |
| 2026-05-07 12:15 | 25.82749 | -80.43807 | 2556 ft | 204 kts | 181° |
| 2026-05-07 12:16 | 25.81394 | -80.43781 | 2361 ft | 184 kts | 168° |
| 2026-05-07 12:16 | 25.80351 | -80.43149 | 2188 ft | 169 kts | 129° |
| 2026-05-07 12:16 | 25.79863 | -80.41966 | 2079 ft | 167 kts | 108° |
| 2026-05-07 12:16 | 25.79601 | -80.40783 | 2038 ft | 151 kts | 95° |
| 2026-05-07 12:17 | 25.79658 | -80.39669 | 1931 ft | 141 kts | 83° |
| 2026-05-07 12:17 | 25.79788 | -80.38568 | 1805 ft | 150 kts | 85° |
| 2026-05-07 12:17 | 25.79879 | -80.37434 | 1703 ft | 146 kts | 86° |
| 2026-05-07 12:17 | 25.79971 | -80.36319 | 1557 ft | 147 kts | 88° |
| 2026-05-07 12:18 | 25.79991 | -80.35187 | 1296 ft | 145 kts | 92° |
| 2026-05-07 12:18 | 25.79969 | -80.34074 | 948 ft | 145 kts | 92° |
| 2026-05-07 12:18 | 25.79965 | -80.32969 | 691 ft | 144 kts | 89° |
| 2026-05-07 12:18 | 25.80006 | -80.31873 | 437 ft | 145 kts | 87° |
| 2026-05-07 12:19 | 25.80052 | -80.30771 | 201 ft | 141 kts | 88° |
| 2026-05-07 12:19 | 25.80094 | -80.29683 | 39 ft | 137 kts | 87° |
| 2026-05-07 12:19 | 25.80134 | -80.28702 | 11 ft | 114 kts | 87° |
| 2026-05-07 12:19 | 25.80158 | -80.28031 | 11 ft | 57 kts | 88° |
| 2026-05-07 12:20 | 25.80170 | -80.27671 | 11 ft | 35 kts | 97° |
| 2026-05-07 12:20 | 25.80102 | -80.27553 | 11 ft | 15 kts | 188° |
| 2026-05-07 12:20 | 25.80063 | -80.27644 | 11 ft | 13 kts | 266° |
| 2026-05-07 12:20 | 25.80059 | -80.27747 | 11 ft | 13 kts | 268° |
| 2026-05-07 12:21 | 25.80054 | -80.27853 | 11 ft | 13 kts | 258° |
| 2026-05-07 12:21 | 25.79990 | -80.27913 | 11 ft | 11 kts | 216° |
| 2026-05-07 12:21 | 25.79965 | -80.27991 | 11 ft | 10 kts | 266° |
| 2026-05-07 12:21 | 25.79961 | -80.28068 | 11 ft | 9 kts | 267° |
| 2026-05-07 12:22 | 25.79947 | -80.28133 | 11 ft | 8 kts | 233° |
| 2026-05-07 12:22 | 25.79899 | -80.28166 | 11 ft | 7 kts | 193° |
| 2026-05-07 12:22 | 25.79851 | -80.28168 | 11 ft | 6 kts | 179° |
| 2026-05-07 12:22 | 25.79834 | -80.28168 | 11 ft | 0 kts | 179° |